createdAt,value
2023-07-03T00:00:20.665Z,16.37
2023-07-03T00:03:23.832Z,17.17
2023-07-03T00:06:26.944Z,19.27
2023-07-03T00:09:30.029Z,18.33
2023-07-03T00:12:34.495Z,18.27
2023-07-03T00:15:38.011Z,17.50
2023-07-03T00:18:41.036Z,18.00
2023-07-03T00:21:45.074Z,18.10
2023-07-03T00:24:48.403Z,17.73
2023-07-03T00:27:55.131Z,18.77
2023-07-03T00:30:58.239Z,18.20
2023-07-03T00:34:01.283Z,18.00
2023-07-03T00:37:04.482Z,17.97
2023-07-03T00:40:10.201Z,18.53
2023-07-03T00:43:15.547Z,19.17
2023-07-03T00:46:18.744Z,19.27
2023-07-03T00:49:22.392Z,18.03
2023-07-03T00:52:25.769Z,18.50
2023-07-03T00:55:29.192Z,19.70
2023-07-03T00:58:34.145Z,18.70
2023-07-03T01:01:45.261Z,19.53
2023-07-03T01:04:53.539Z,18.17
2023-07-03T01:07:58.104Z,18.10
2023-07-03T01:11:01.712Z,18.37
2023-07-03T01:14:08.572Z,18.53
2023-07-03T01:17:12.658Z,18.90
2023-07-03T01:20:19.919Z,19.30
2023-07-03T01:23:29.856Z,18.97
2023-07-03T01:26:35.455Z,18.80
2023-07-03T01:29:41.760Z,19.43
2023-07-03T01:32:47.890Z,19.73
2023-07-03T01:35:53.183Z,18.83
2023-07-03T01:38:57.436Z,19.57
2023-07-03T01:42:02.514Z,20.10
2023-07-03T01:45:06.460Z,19.40
2023-07-03T01:48:10.017Z,19.67
2023-07-03T01:51:21.507Z,19.23
2023-07-03T01:54:31.789Z,21.23
2023-07-03T01:57:47.497Z,19.30
2023-07-03T02:00:54.285Z,19.57
2023-07-03T02:04:02.581Z,19.70
2023-07-03T02:07:08.468Z,21.97
2023-07-03T02:10:12.406Z,19.60
2023-07-03T02:13:16.828Z,20.63
2023-07-03T02:16:19.877Z,20.17
2023-07-03T02:19:30.159Z,20.43
2023-07-03T02:22:33.276Z,20.60
2023-07-03T02:25:36.886Z,20.13
2023-07-03T02:28:41.487Z,21.47
2023-07-03T02:31:44.533Z,21.37
2023-07-03T02:34:47.609Z,20.23
2023-07-03T02:37:50.612Z,20.77
2023-07-03T02:40:53.660Z,19.00
2023-07-03T02:43:58.186Z,21.20
2023-07-03T02:47:01.404Z,21.00
2023-07-03T02:50:05.072Z,20.33
2023-07-03T02:53:08.696Z,20.50
2023-07-03T02:56:12.160Z,20.43
2023-07-03T02:59:16.663Z,25.63
2023-07-03T03:02:21.609Z,24.87
2023-07-03T03:05:24.732Z,33.63
2023-07-03T03:08:27.822Z,28.60
2023-07-03T03:11:31.527Z,31.07
2023-07-03T03:14:36.592Z,27.90
2023-07-03T03:17:39.799Z,26.00
2023-07-03T03:20:43.971Z,28.80
2023-07-03T03:23:48.154Z,22.57
2023-07-03T03:26:51.255Z,20.90
2023-07-03T03:29:55.704Z,35.20
2023-07-03T03:32:58.919Z,34.70
2023-07-03T03:36:02.089Z,28.93
2023-07-03T03:39:05.608Z,22.93
2023-07-03T03:42:10.711Z,23.10
2023-07-03T03:45:15.164Z,28.50
2023-07-03T03:48:18.305Z,35.83
2023-07-03T03:51:21.376Z,28.87
2023-07-03T03:54:24.610Z,21.80
2023-07-03T03:57:27.882Z,22.07
2023-07-03T04:00:32.443Z,20.07
2023-07-03T04:03:35.708Z,21.60
2023-07-03T04:06:39.496Z,39.70
2023-07-03T04:09:42.575Z,32.70
2023-07-03T04:12:45.659Z,24.20
2023-07-03T04:16:00.668Z,22.53
2023-07-03T04:19:04.181Z,23.90
2023-07-03T04:22:07.623Z,22.50
2023-07-03T04:25:11.657Z,21.67
2023-07-03T04:28:15.556Z,22.47
2023-07-03T04:31:20.176Z,24.27
2023-07-03T04:34:23.484Z,22.17
2023-07-03T04:37:28.207Z,21.73
2023-07-03T04:40:31.603Z,20.60
2023-07-03T04:43:34.648Z,21.17
2023-07-03T04:46:39.854Z,21.63
2023-07-03T04:49:42.950Z,20.40
2023-07-03T04:52:47.700Z,21.50
2023-07-03T04:55:51.445Z,19.77
2023-07-03T04:58:54.749Z,21.03
2023-07-03T05:01:59.374Z,20.87
2023-07-03T05:05:02.773Z,21.00
2023-07-03T05:08:06.859Z,21.07
2023-07-03T05:11:10.009Z,19.67
2023-07-03T05:14:13.188Z,19.67
2023-07-03T05:17:17.617Z,19.20
2023-07-03T05:20:23.284Z,20.87
2023-07-03T05:23:26.388Z,20.47
2023-07-03T05:26:29.499Z,19.90
2023-07-03T05:29:34.786Z,21.17
2023-07-03T05:32:39.601Z,22.20
2023-07-03T05:35:50.659Z,21.20
2023-07-03T05:38:54.468Z,20.20
2023-07-03T05:41:57.637Z,20.50
2023-07-03T05:45:00.837Z,19.93
2023-07-03T05:48:05.674Z,18.50
2023-07-03T05:51:08.830Z,20.03
2023-07-03T05:54:11.866Z,20.33
2023-07-03T05:57:15.006Z,19.27
2023-07-03T06:00:19.002Z,19.20
2023-07-03T06:03:26.152Z,18.50
2023-07-03T06:06:29.530Z,18.00
2023-07-03T06:09:36.506Z,17.87
2023-07-03T06:12:39.961Z,17.40
2023-07-03T06:15:43.219Z,18.07
2023-07-03T06:18:47.790Z,17.70
2023-07-03T06:21:50.831Z,18.97
2023-07-03T06:24:53.928Z,19.03
2023-07-03T06:27:57.060Z,17.50
2023-07-03T06:31:00.390Z,17.63
2023-07-03T06:34:05.763Z,17.40
2023-07-03T06:37:08.848Z,17.43
2023-07-03T06:40:15.784Z,17.77
2023-07-03T06:43:18.876Z,16.90
2023-07-03T06:46:22.607Z,17.07
2023-07-03T06:49:27.156Z,17.30
2023-07-03T06:52:30.202Z,16.87
2023-07-03T06:55:33.386Z,16.70
2023-07-03T06:58:37.130Z,16.17
2023-07-03T07:01:42.609Z,18.13
2023-07-03T07:04:47.424Z,17.40
2023-07-03T07:07:50.530Z,16.63
2023-07-03T07:10:53.851Z,15.97
2023-07-03T07:13:59.340Z,15.97
2023-07-03T07:17:02.461Z,15.50
2023-07-03T07:20:08.499Z,16.37
2023-07-03T07:23:13.463Z,15.27
2023-07-03T07:26:16.684Z,14.90
2023-07-03T07:29:20.274Z,15.47
2023-07-03T07:32:26.304Z,15.30
2023-07-03T07:35:30.968Z,14.93
2023-07-03T07:38:34.147Z,15.30
2023-07-03T07:41:37.920Z,14.13
2023-07-03T07:44:41.067Z,14.83
2023-07-03T07:47:44.331Z,14.97
2023-07-03T07:50:48.931Z,14.53
2023-07-03T07:53:52.722Z,16.17
2023-07-03T07:56:55.925Z,14.50
2023-07-03T07:59:59.309Z,13.77
2023-07-03T08:03:02.578Z,13.93
2023-07-03T08:06:07.559Z,15.03
2023-07-03T08:09:10.751Z,13.77
2023-07-03T08:12:13.912Z,13.80
2023-07-03T08:15:17.385Z,14.30
2023-07-03T08:18:21.561Z,14.17
2023-07-03T08:21:26.154Z,13.97
2023-07-03T08:24:29.389Z,13.70
2023-07-03T08:27:32.637Z,12.53
2023-07-03T08:30:35.841Z,13.20
2023-07-03T08:33:38.973Z,13.47
2023-07-03T08:39:49.820Z,13.63
2023-07-03T08:42:55.912Z,13.50
2023-07-03T08:45:59.667Z,13.90
2023-07-03T08:49:05.477Z,12.63
2023-07-03T08:52:10.906Z,13.33
2023-07-03T08:55:18.649Z,12.63
2023-07-03T08:58:22.609Z,13.27
2023-07-03T09:01:33.751Z,12.97
2023-07-03T09:04:49.631Z,13.17
2023-07-03T09:07:57.146Z,11.87
2023-07-03T09:11:01.126Z,13.93
2023-07-03T09:14:05.422Z,13.00
2023-07-03T09:17:11.040Z,11.93
2023-07-03T09:20:16.818Z,12.53
2023-07-03T09:23:24.000Z,11.73
2023-07-03T09:26:34.357Z,12.07
2023-07-03T09:29:38.963Z,12.60
2023-07-03T09:32:42.169Z,12.10
2023-07-03T09:35:45.339Z,11.83
2023-07-03T09:38:49.844Z,11.67
2023-07-03T09:41:54.385Z,12.60
2023-07-03T09:44:57.530Z,12.50
2023-07-03T09:48:04.194Z,12.50
2023-07-03T09:51:09.112Z,12.00
2023-07-03T09:54:23.094Z,12.67
2023-07-03T09:57:28.184Z,11.77
2023-07-03T10:00:31.761Z,11.93
2023-07-03T10:03:38.446Z,12.53
2023-07-03T10:06:45.624Z,13.03
2023-07-03T10:13:05.246Z,12.03
2023-07-03T10:16:09.312Z,12.07
2023-07-03T10:19:12.998Z,12.07
2023-07-03T10:22:17.078Z,12.10
2023-07-03T10:25:29.862Z,11.77
2023-07-03T10:28:39.872Z,11.83
2023-07-03T10:31:49.076Z,12.00
2023-07-03T10:35:00.052Z,12.57
2023-07-03T10:38:11.456Z,11.90
2023-07-03T10:41:22.207Z,11.80
2023-07-03T10:44:28.855Z,11.60
2023-07-03T10:47:38.572Z,11.60
2023-07-03T10:50:50.369Z,12.37
2023-07-03T10:53:57.359Z,11.60
2023-07-03T10:57:04.988Z,12.57
2023-07-03T11:00:14.370Z,11.30
2023-07-03T11:03:29.485Z,11.67
2023-07-03T11:06:43.752Z,11.80
2023-07-03T11:09:56.052Z,12.03
2023-07-03T11:13:07.336Z,11.50
2023-07-03T11:16:15.433Z,10.93
2023-07-03T11:22:47.963Z,11.87
2023-07-03T11:29:06.261Z,10.10
2023-07-03T11:32:11.345Z,10.23
2023-07-03T11:45:01.819Z,10.30
2023-07-03T11:48:05.621Z,11.40
2023-07-03T11:51:12.357Z,10.30
2023-07-03T11:54:19.806Z,10.30
2023-07-03T11:57:35.275Z,10.50
2023-07-03T12:00:40.051Z,10.40
2023-07-03T12:03:53.312Z,10.40
2023-07-03T12:06:56.499Z,9.80
2023-07-03T12:10:29.261Z,9.10
2023-07-03T12:13:46.572Z,9.87
2023-07-03T12:16:51.283Z,9.40
2023-07-03T12:19:59.504Z,9.77
2023-07-03T12:23:02.744Z,9.90
2023-07-03T12:26:08.365Z,9.70
2023-07-03T12:29:11.437Z,9.10
2023-07-03T12:32:26.370Z,9.17
2023-07-03T12:35:33.084Z,9.93
2023-07-03T12:38:37.156Z,9.00
2023-07-03T12:41:40.413Z,9.53
2023-07-03T12:44:43.591Z,9.63
2023-07-03T12:48:01.582Z,10.07
2023-07-03T12:51:04.779Z,8.83
2023-07-03T12:54:09.334Z,9.47
2023-07-03T12:57:12.944Z,9.23
2023-07-03T13:00:22.398Z,9.17
2023-07-03T13:03:27.060Z,8.27
2023-07-03T13:06:31.816Z,8.40
2023-07-03T13:09:35.045Z,7.70
2023-07-03T13:12:38.216Z,8.47
2023-07-03T13:15:43.736Z,8.20
2023-07-03T13:19:01.546Z,8.00
2023-07-03T13:22:08.926Z,8.53
2023-07-03T13:25:14.421Z,9.30
2023-07-03T13:28:25.404Z,7.93
2023-07-03T13:31:46.620Z,8.33
2023-07-03T13:35:01.681Z,8.07
2023-07-03T13:38:22.081Z,8.40
2023-07-03T13:41:25.426Z,7.60
2023-07-03T13:44:28.806Z,7.90
2023-07-03T13:47:31.923Z,7.63
2023-07-03T13:50:37.235Z,8.03
2023-07-03T13:53:40.267Z,7.50
2023-07-03T13:56:45.447Z,7.80
2023-07-03T13:59:48.473Z,8.00
2023-07-03T14:02:52.170Z,7.07
2023-07-03T14:05:56.756Z,7.37
2023-07-03T14:08:59.818Z,7.83
2023-07-03T14:12:03.400Z,6.63
2023-07-03T14:15:15.430Z,9.40
2023-07-03T14:18:18.859Z,7.10
2023-07-03T14:21:25.374Z,7.33
2023-07-03T14:24:28.859Z,7.57
2023-07-03T14:27:36.104Z,7.37
2023-07-03T14:30:39.309Z,6.90
2023-07-03T14:33:42.517Z,7.50
2023-07-03T14:36:47.038Z,8.57
2023-07-03T14:39:50.165Z,7.10
2023-07-03T14:42:53.539Z,8.00
2023-07-03T14:45:56.741Z,8.73
2023-07-03T14:48:59.872Z,15.03
2023-07-03T14:52:04.432Z,8.97
2023-07-03T14:55:08.442Z,10.30
2023-07-03T14:58:12.086Z,13.00
2023-07-03T15:01:15.322Z,12.30
2023-07-03T15:04:18.787Z,10.60
2023-07-03T15:07:23.377Z,17.80
2023-07-03T15:10:27.468Z,9.47
2023-07-03T15:13:30.704Z,8.43
2023-07-03T15:16:35.780Z,9.97
2023-07-03T15:19:39.553Z,8.23
2023-07-03T15:22:44.011Z,7.87
2023-07-03T15:25:47.036Z,8.50
2023-07-03T15:28:50.261Z,8.97
2023-07-03T15:31:54.641Z,8.30
2023-07-03T15:34:57.730Z,9.77
2023-07-03T15:38:02.188Z,9.93
2023-07-03T15:41:05.288Z,8.40
2023-07-03T15:44:08.430Z,8.37
2023-07-03T15:47:12.431Z,7.90
2023-07-03T15:50:15.886Z,8.03
2023-07-03T15:53:20.620Z,8.60
2023-07-03T15:56:23.743Z,8.13
2023-07-03T15:59:27.201Z,7.73
2023-07-03T16:02:30.925Z,7.70
2023-07-03T16:05:34.008Z,7.73
2023-07-03T16:08:40.845Z,8.00
2023-07-03T16:11:43.990Z,8.03
2023-07-03T16:14:49.098Z,8.33
2023-07-03T16:17:52.401Z,8.33
2023-07-03T16:20:58.036Z,7.40
2023-07-03T16:24:04.210Z,8.27
2023-07-03T16:27:07.624Z,9.60
2023-07-03T16:30:12.002Z,9.77
2023-07-03T16:33:15.302Z,9.03
2023-07-03T16:36:21.577Z,8.60
2023-07-03T16:39:26.246Z,8.90
2023-07-03T16:42:29.451Z,9.37
2023-07-03T16:45:32.638Z,8.67
2023-07-03T16:48:36.030Z,10.50
2023-07-03T16:51:39.085Z,9.53
2023-07-03T16:54:43.727Z,9.50
2023-07-03T16:57:46.788Z,9.53
2023-07-03T17:00:49.854Z,8.40
2023-07-03T17:03:56.438Z,8.83
2023-07-03T17:06:59.861Z,9.47
2023-07-03T17:10:04.498Z,8.43
2023-07-03T17:13:08.358Z,8.63
2023-07-03T17:16:11.943Z,8.37
2023-07-03T17:19:15.211Z,9.10
2023-07-03T17:22:19.645Z,9.70
2023-07-03T17:25:24.170Z,9.17
2023-07-03T17:28:27.299Z,7.93
2023-07-03T17:31:30.478Z,9.20
2023-07-03T17:34:33.556Z,8.17
2023-07-03T17:37:36.641Z,8.53
2023-07-03T17:40:41.812Z,6.60
2023-07-03T17:43:44.927Z,6.70
2023-07-03T17:46:48.161Z,6.63
2023-07-03T17:49:51.300Z,9.03
2023-07-03T17:52:54.442Z,6.37
2023-07-03T17:55:58.963Z,7.50
2023-07-03T17:59:02.112Z,6.70
2023-07-03T18:02:06.988Z,7.10
2023-07-03T18:05:10.412Z,7.83
2023-07-03T18:08:13.884Z,7.40
2023-07-03T18:11:19.369Z,7.37
2023-07-03T18:14:22.678Z,8.10
2023-07-03T18:17:26.222Z,8.77
2023-07-03T18:20:29.295Z,10.20
2023-07-03T18:23:32.651Z,10.70
2023-07-03T18:26:37.050Z,11.77
2023-07-03T18:29:40.710Z,11.10
2023-07-03T18:32:44.173Z,11.90
2023-07-03T18:35:47.282Z,11.43
2023-07-03T18:38:50.715Z,9.83
2023-07-03T18:41:55.200Z,9.27
2023-07-03T18:44:58.282Z,12.07
2023-07-03T18:48:01.431Z,9.00
2023-07-03T18:51:04.821Z,9.53
2023-07-03T18:54:07.973Z,10.63
2023-07-03T18:57:12.791Z,10.00
2023-07-03T19:00:17.033Z,10.40
2023-07-03T19:03:21.385Z,9.60
2023-07-03T19:06:24.660Z,9.80
2023-07-03T19:09:27.767Z,9.60
2023-07-03T19:12:32.335Z,9.80
2023-07-03T19:15:36.563Z,9.60
2023-07-03T19:18:40.643Z,10.10
2023-07-03T19:21:44.469Z,12.43
2023-07-03T19:24:49.046Z,9.73
2023-07-03T19:27:53.595Z,10.73
2023-07-03T19:30:58.765Z,10.37
2023-07-03T19:34:03.466Z,12.60
2023-07-03T19:37:06.849Z,12.77
2023-07-03T19:40:11.137Z,11.83
2023-07-03T19:43:15.810Z,12.80
2023-07-03T19:46:18.892Z,13.93
2023-07-03T19:49:23.419Z,12.97
2023-07-03T19:52:26.620Z,13.17
2023-07-03T19:55:29.757Z,12.00
2023-07-03T19:58:34.248Z,9.90
2023-07-03T20:01:38.817Z,8.83
2023-07-03T20:04:42.153Z,9.20
2023-07-03T20:07:45.214Z,9.53
2023-07-03T20:10:48.867Z,9.40
2023-07-03T20:13:54.602Z,8.63
2023-07-03T20:16:57.735Z,8.90
2023-07-03T20:20:00.896Z,9.27
2023-07-03T20:23:03.970Z,8.90
2023-07-03T20:26:07.048Z,9.47
2023-07-03T20:29:12.076Z,9.43
2023-07-03T20:32:15.124Z,8.77
2023-07-03T20:35:18.233Z,9.23
2023-07-03T20:38:21.238Z,8.90
2023-07-03T20:41:24.473Z,9.43
2023-07-03T20:44:29.043Z,9.10
2023-07-03T20:47:32.922Z,7.67
2023-07-03T20:50:36.003Z,6.80
2023-07-03T20:53:49.007Z,7.10
2023-07-03T20:56:52.223Z,7.50
2023-07-03T20:59:56.684Z,7.67
2023-07-03T21:02:59.867Z,9.07
2023-07-03T21:06:03.241Z,7.10
2023-07-03T21:09:07.117Z,7.30
2023-07-03T21:12:10.378Z,6.77
2023-07-03T21:15:14.916Z,6.80
2023-07-03T21:18:18.070Z,6.70
2023-07-03T21:21:23.419Z,7.57
2023-07-03T21:24:26.511Z,6.87
2023-07-03T21:27:29.873Z,6.73
2023-07-03T21:30:34.298Z,6.90
2023-07-03T21:33:37.315Z,6.63
2023-07-03T21:36:40.764Z,6.40
2023-07-03T21:39:43.806Z,6.50
2023-07-03T21:42:46.844Z,5.60
2023-07-03T21:46:02.052Z,6.67
2023-07-03T21:49:05.256Z,6.40
2023-07-03T21:52:08.475Z,7.10
2023-07-03T21:55:11.768Z,6.83
2023-07-03T21:58:14.915Z,6.50
2023-07-03T22:01:23.298Z,6.30
2023-07-03T22:04:28.090Z,6.30
2023-07-03T22:07:31.185Z,6.50
2023-07-03T22:10:34.259Z,6.53
2023-07-03T22:13:37.357Z,7.07
2023-07-03T22:16:42.047Z,5.50
2023-07-03T22:19:45.164Z,6.87
2023-07-03T22:22:49.202Z,6.10
2023-07-03T22:25:56.908Z,5.70
2023-07-03T22:29:00.161Z,6.07
2023-07-03T22:32:05.034Z,6.07
2023-07-03T22:35:08.791Z,6.87
2023-07-03T22:38:11.893Z,5.40
2023-07-03T22:41:16.093Z,6.00
2023-07-03T22:44:19.104Z,6.30
2023-07-03T22:47:23.801Z,6.37
2023-07-03T22:50:28.325Z,6.87
2023-07-03T22:53:31.397Z,6.17
2023-07-03T22:56:34.433Z,6.77
2023-07-03T22:59:37.670Z,6.50
2023-07-03T23:02:42.579Z,6.13
2023-07-03T23:05:47.145Z,6.63
2023-07-03T23:08:50.625Z,5.47
2023-07-03T23:11:54.429Z,5.93
2023-07-03T23:14:57.834Z,5.50
2023-07-03T23:18:02.416Z,5.73
2023-07-03T23:21:10.197Z,5.73
2023-07-03T23:24:13.419Z,5.73
2023-07-03T23:27:20.588Z,6.27
2023-07-03T23:30:24.127Z,5.90
2023-07-03T23:33:30.426Z,6.07
2023-07-03T23:36:34.773Z,5.47
2023-07-03T23:39:38.588Z,6.00
2023-07-03T23:42:41.791Z,5.93
2023-07-03T23:45:44.868Z,5.80
2023-07-03T23:48:49.997Z,6.20
2023-07-03T23:51:53.386Z,5.10
2023-07-03T23:54:58.889Z,5.37
2023-07-03T23:58:01.928Z,5.40
